Time;durP1;ratioP1;P1;durP2;ratioP2;P2;SDS_P1;SDS_P2;PMS_P1;PMS_P2;Temp;Humidity;BMP_temperature;BMP_pressure;BME280_temperature;BME280_humidity;BME280_pressure;Samples;Min_cycle;Max_cycle;Signal;HPM_P1;HPM_P2
2021/11/25 00:01:41;;;;;;;44.90;27.60;;;;;;;;;;5034936;28;20033;-75
2021/11/25 00:04:07;;;;;;;53.22;30.17;;;;;;;;;;5035132;28;20065;-74
2021/11/25 00:06:32;;;;;;;53.95;30.98;;;;;;;;;;5034936;28;20083;-74
2021/11/25 00:08:58;;;;;;;48.80;29.08;;;;;;;;;;5034976;28;20037;-74
2021/11/25 00:11:27;;;;;;;54.88;29.83;;;;;;;;;;5017251;28;20033;-74
2021/11/25 00:13:52;;;;;;;51.00;29.55;;;;;;;;;;5034309;28;20099;-65
2021/11/25 00:16:18;;;;;;;45.42;27.20;;;;;;;;;;5034855;28;20030;-65
2021/11/25 00:18:44;;;;;;;46.47;27.55;;;;;;;;;;5001044;28;20207;-65
2021/11/25 00:21:10;;;;;;;49.53;27.55;;;;;;;;;;5034614;28;20044;-66
2021/11/25 00:23:37;;;;;;;48.88;27.40;;;;;;;;;;5034587;28;20077;-65
2021/11/25 00:26:04;;;;;;;48.63;29.10;;;;;;;;;;5017079;28;20493;-66
2021/11/25 00:28:32;;;;;;;46.38;27.02;;;;;;;;;;5016937;28;20046;-66
2021/11/25 00:30:59;;;;;;;40.88;26.67;;;;;;;;;;5034414;28;20373;-66
2021/11/25 00:33:25;;;;;;;46.78;27.10;;;;;;;;;;5034626;28;20045;-66
2021/11/25 00:35:50;;;;;;;41.78;24.70;;;;;;;;;;5034438;28;20026;-66
2021/11/25 00:38:16;;;;;;;43.20;26.25;;;;;;;;;;5034525;28;20046;-67
2021/11/25 00:40:42;;;;;;;50.60;27.90;;;;;;;;;;5034388;28;20029;-67
2021/11/25 00:43:07;;;;;;;49.35;28.25;;;;;;;;;;5016626;28;20041;-74
2021/11/25 00:45:32;;;;;;;46.85;26.27;;;;;;;;;;5034321;28;20036;-73
2021/11/25 00:47:58;;;;;;;47.45;27.30;;;;;;;;;;5023299;28;20044;-73
2021/11/25 00:50:24;;;;;;;40.00;25.67;;;;;;;;;;5036454;28;20416;-73
2021/11/25 00:52:49;;;;;;;46.65;26.13;;;;;;;;;;5054070;28;20036;-73
2021/11/25 00:55:15;;;;;;;43.25;26.38;;;;;;;;;;5054127;28;20065;-74
2021/11/25 00:57:40;;;;;;;41.85;24.17;;;;;;;;;;5054198;28;20067;-73
2021/11/25 01:00:08;;;;;;;40.00;23.65;;;;;;;;;;5054155;28;20116;-66
2021/11/25 01:02:34;;;;;;;40.45;24.52;;;;;;;;;;5054018;28;20041;-66
2021/11/25 01:04:59;;;;;;;44.72;24.55;;;;;;;;;;5053818;28;20031;-67
2021/11/25 01:07:25;;;;;;;36.75;23.17;;;;;;;;;;5053686;28;20036;-66
2021/11/25 01:09:50;;;;;;;39.05;24.02;;;;;;;;;;5036129;28;20029;-67
2021/11/25 01:12:17;;;;;;;41.53;24.02;;;;;;;;;;5053689;28;20041;-67
2021/11/25 01:14:42;;;;;;;38.47;21.77;;;;;;;;;;5053009;28;20119;-67
2021/11/25 01:17:08;;;;;;;41.72;23.08;;;;;;;;;;5053615;28;20124;-67
2021/11/25 01:19:34;;;;;;;39.42;23.23;;;;;;;;;;5053455;28;20219;-65
2021/11/25 01:22:00;;;;;;;39.83;22.13;;;;;;;;;;5053727;28;20100;-66
2021/11/25 01:24:25;;;;;;;36.33;21.10;;;;;;;;;;5053236;28;20040;-66
2021/11/25 01:26:51;;;;;;;37.90;22.52;;;;;;;;;;5036001;28;20044;-66
2021/11/25 01:29:17;;;;;;;35.55;21.52;;;;;;;;;;5053753;28;20100;-66
2021/11/25 01:31:42;;;;;;;33.40;20.45;;;;;;;;;;5053621;28;20033;-66
2021/11/25 01:34:08;;;;;;;35.90;20.50;;;;;;;;;;5035384;28;20033;-66
2021/11/25 01:36:34;;;;;;;40.08;22.15;;;;;;;;;;5053534;28;20037;-66
2021/11/25 01:38:59;;;;;;;34.10;19.75;;;;;;;;;;5053293;28;20058;-66
2021/11/25 01:41:25;;;;;;;33.95;20.80;;;;;;;;;;5053258;28;20041;-65
2021/11/25 01:43:51;;;;;;;34.15;20.02;;;;;;;;;;5053143;28;20123;-66
2021/11/25 01:46:18;;;;;;;31.00;18.85;;;;;;;;;;5053358;28;20029;-65
2021/11/25 01:48:47;;;;;;;28.50;17.67;;;;;;;;;;5052625;28;20037;-65
2021/11/25 01:51:12;;;;;;;28.75;17.20;;;;;;;;;;5053070;28;20477;-66
2021/11/25 01:53:38;;;;;;;29.95;18.27;;;;;;;;;;5053253;28;20040;-72
2021/11/25 01:56:04;;;;;;;27.92;17.92;;;;;;;;;;5053336;28;20040;-72
2021/11/25 01:58:30;;;;;;;28.60;18.55;;;;;;;;;;5053214;28;20029;-72
2021/11/25 02:00:56;;;;;;;29.10;18.35;;;;;;;;;;5052971;28;20044;-72
2021/11/25 02:03:23;;;;;;;26.23;18.30;;;;;;;;;;5052689;28;20092;-72
2021/11/25 02:05:48;;;;;;;29.90;18.13;;;;;;;;;;5035559;28;20060;-73
2021/11/25 02:08:14;;;;;;;29.48;18.45;;;;;;;;;;5052943;28;20461;-74
2021/11/25 02:10:41;;;;;;;31.88;18.95;;;;;;;;;;5035311;28;20068;-74
2021/11/25 02:13:22;;;;;;;27.52;17.83;;;;;;;;;;5053090;28;20017;-75
2021/11/25 02:15:48;;;;;;;27.58;17.30;;;;;;;;;;5053034;28;20033;-75
2021/11/25 02:18:39;;;;;;;25.52;16.80;;;;;;;;;;5035219;28;20393;-75
2021/11/25 02:21:37;;;;;;;26.33;15.93;;;;;;;;;;5034718;28;20544;-76
2021/11/25 02:24:25;;;;;;;26.30;17.13;;;;;;;;;;5035137;28;20045;-74
2021/11/25 02:26:50;;;;;;;24.55;15.95;;;;;;;;;;5056777;28;20370;-75
2021/11/25 02:29:21;;;;;;;33.25;19.38;;;;;;;;;;5056584;28;20029;-75
2021/11/25 02:31:51;;;;;;;47.67;29.20;;;;;;;;;;5056756;28;20036;-67
2021/11/25 02:34:31;;;;;;;40.00;24.67;;;;;;;;;;5056709;28;20041;-68
2021/11/25 02:37:13;;;;;;;41.83;26.33;;;;;;;;;;5056819;28;20037;-75
2021/11/25 02:39:39;;;;;;;35.80;22.30;;;;;;;;;;5056702;28;20128;-73
2021/11/25 02:42:05;;;;;;;30.10;19.48;;;;;;;;;;5038918;28;20112;-65
2021/11/25 02:44:31;;;;;;;29.58;17.95;;;;;;;;;;5056529;28;20064;-66
2021/11/25 02:47:00;;;;;;;32.10;19.33;;;;;;;;;;5056290;28;20028;-65
2021/11/25 02:49:25;;;;;;;34.55;21.48;;;;;;;;;;5056184;28;20565;-65
2021/11/25 02:51:51;;;;;;;34.40;21.42;;;;;;;;;;5038476;28;20120;-65
2021/11/25 02:54:16;;;;;;;32.38;21.48;;;;;;;;;;5056391;28;20041;-65
2021/11/25 02:56:42;;;;;;;30.17;21.02;;;;;;;;;;5038611;28;20036;-65
2021/11/25 02:59:07;;;;;;;36.47;21.65;;;;;;;;;;5055820;28;20136;-65
2021/11/25 03:01:36;;;;;;;34.05;21.92;;;;;;;;;;5038801;28;20037;-65
2021/11/25 03:04:02;;;;;;;40.60;23.77;;;;;;;;;;5056187;28;20079;-71
2021/11/25 03:06:28;;;;;;;51.42;26.50;;;;;;;;;;5055925;28;20021;-71
2021/11/25 03:08:54;;;;;;;63.63;29.75;;;;;;;;;;5056038;28;20041;-71
2021/11/25 03:11:20;;;;;;;54.63;27.33;;;;;;;;;;5038336;28;20029;-71
2021/11/25 03:13:48;;;;;;;54.72;27.38;;;;;;;;;;5038125;28;20088;-65
2021/11/25 03:16:14;;;;;;;51.50;25.00;;;;;;;;;;5037951;28;20116;-65
2021/11/25 03:18:40;;;;;;;49.47;25.55;;;;;;;;;;5038085;28;20044;-72
2021/11/25 03:21:06;;;;;;;45.30;23.98;;;;;;;;;;5056072;28;20040;-72
2021/11/25 03:23:32;;;;;;;51.08;25.98;;;;;;;;;;5055698;28;20131;-73
2021/11/25 03:25:59;;;;;;;47.78;24.90;;;;;;;;;;5055806;28;20027;-74
2021/11/25 03:28:25;;;;;;;37.65;21.20;;;;;;;;;;5055601;28;20041;-73
2021/11/25 03:31:20;;;;;;;38.22;20.15;;;;;;;;;;5055704;28;20420;-75
2021/11/25 03:33:55;;;;;;;39.75;20.50;;;;;;;;;;5022301;28;20063;-66
2021/11/25 03:36:21;;;;;;;34.83;18.75;;;;;;;;;;5055262;28;20037;-66
2021/11/25 03:38:47;;;;;;;35.33;17.17;;;;;;;;;;5055169;28;20032;-66
2021/11/25 03:41:14;;;;;;;33.92;17.75;;;;;;;;;;5055497;28;20029;-65
2021/11/25 03:43:39;;;;;;;28.30;16.42;;;;;;;;;;5055453;28;20064;-65
2021/11/25 03:46:05;;;;;;;29.75;16.58;;;;;;;;;;5037796;28;20083;-66
2021/11/25 03:48:31;;;;;;;25.50;15.65;;;;;;;;;;5037047;28;20064;-66
2021/11/25 03:50:58;;;;;;;29.70;15.57;;;;;;;;;;5055267;28;20033;-66
2021/11/25 03:53:24;;;;;;;22.85;13.75;;;;;;;;;;5055551;28;20048;-66
2021/11/25 03:55:50;;;;;;;20.42;12.50;;;;;;;;;;5036797;28;20036;-65
2021/11/25 03:58:15;;;;;;;19.75;12.15;;;;;;;;;;5055051;28;20084;-65
2021/11/25 04:00:41;;;;;;;18.92;11.20;;;;;;;;;;5055085;28;20032;-67
2021/11/25 04:03:06;;;;;;;15.98;10.93;;;;;;;;;;5055274;28;20045;-67
2021/11/25 04:05:32;;;;;;;14.10;9.70;;;;;;;;;;5054864;28;20032;-67
2021/11/25 04:07:58;;;;;;;15.52;9.52;;;;;;;;;;5054856;28;20029;-67
2021/11/25 04:10:24;;;;;;;12.35;9.10;;;;;;;;;;5037193;28;20116;-66
2021/11/25 04:12:50;;;;;;;12.93;8.75;;;;;;;;;;5055076;28;20111;-66
2021/11/25 04:15:17;;;;;;;13.35;9.02;;;;;;;;;;5054886;28;20033;-66
2021/11/25 04:17:43;;;;;;;14.57;9.43;;;;;;;;;;5054854;28;20492;-66
2021/11/25 04:20:09;;;;;;;15.38;9.98;;;;;;;;;;5054997;28;20037;-72
2021/11/25 04:22:34;;;;;;;13.18;8.82;;;;;;;;;;5054762;28;20068;-73
2021/11/25 04:25:01;;;;;;;12.63;9.07;;;;;;;;;;5054888;28;20481;-74
2021/11/25 04:27:26;;;;;;;12.30;9.43;;;;;;;;;;5054600;28;20124;-73
2021/11/25 04:37:57;;;;;;;16.30;10.35;;;;;;;;;;5054805;28;20393;-73
2021/11/25 04:40:23;;;;;;;12.55;9.68;;;;;;;;;;5054589;28;20033;-72
2021/11/25 04:42:48;;;;;;;12.55;8.85;;;;;;;;;;5036551;28;20500;-73
2021/11/25 04:45:14;;;;;;;11.07;8.00;;;;;;;;;;5054132;28;20118;-73
2021/11/25 04:47:39;;;;;;;12.52;9.18;;;;;;;;;;5053511;28;20044;-73
2021/11/25 04:50:05;;;;;;;15.98;9.77;;;;;;;;;;5053656;28;20045;-73
2021/11/25 04:52:31;;;;;;;17.50;11.00;;;;;;;;;;5036130;28;20485;-72
2021/11/25 04:54:57;;;;;;;17.42;11.27;;;;;;;;;;5053957;28;20033;-72
2021/11/25 04:57:22;;;;;;;23.33;14.70;;;;;;;;;;5053823;28;20115;-73
2021/11/25 04:59:48;;;;;;;37.10;25.42;;;;;;;;;;5054003;28;20469;-72
2021/11/25 05:02:13;;;;;;;25.60;18.33;;;;;;;;;;5054108;28;20099;-72
2021/11/25 05:04:39;;;;;;;25.27;15.82;;;;;;;;;;5053976;28;20037;-72
2021/11/25 05:07:04;;;;;;;20.23;13.77;;;;;;;;;;5053944;28;20056;-72
2021/11/25 05:09:30;;;;;;;27.63;17.30;;;;;;;;;;5035528;28;20361;-73
2021/11/25 05:11:55;;;;;;;29.98;18.80;;;;;;;;;;5052980;28;20036;-73
2021/11/25 05:14:21;;;;;;;28.33;18.40;;;;;;;;;;5053330;28;20029;-72
2021/11/25 05:16:47;;;;;;;27.77;18.60;;;;;;;;;;5053711;28;20533;-73
2021/11/25 05:19:16;;;;;;;23.48;17.15;;;;;;;;;;5053629;28;20036;-73
2021/11/25 05:21:41;;;;;;;23.40;15.73;;;;;;;;;;5053727;28;20397;-74
2021/11/25 05:24:07;;;;;;;20.50;14.13;;;;;;;;;;5053407;28;20029;-73
2021/11/25 05:26:32;;;;;;;32.28;19.33;;;;;;;;;;5053600;28;20120;-73
2021/11/25 05:28:58;;;;;;;48.65;28.45;;;;;;;;;;5035642;28;20025;-73
2021/11/25 05:31:23;;;;;;;32.50;21.35;;;;;;;;;;5035813;28;20048;-73
2021/11/25 05:33:50;;;;;;;21.02;15.10;;;;;;;;;;5034311;28;20112;-73
2021/11/25 05:36:15;;;;;;;28.40;16.02;;;;;;;;;;5035205;28;20064;-73
2021/11/25 05:38:41;;;;;;;24.13;13.82;;;;;;;;;;5035704;28;20396;-73
2021/11/25 05:41:07;;;;;;;23.45;13.30;;;;;;;;;;5035291;28;20033;-72
2021/11/25 05:43:32;;;;;;;25.05;14.55;;;;;;;;;;5053072;28;20045;-72
2021/11/25 05:45:58;;;;;;;29.25;16.05;;;;;;;;;;5053486;28;20400;-73
2021/11/25 05:48:23;;;;;;;22.80;14.60;;;;;;;;;;5052736;28;20448;-73
2021/11/25 05:50:50;;;;;;;28.98;18.00;;;;;;;;;;5035383;28;20037;-73
2021/11/25 05:53:18;;;;;;;43.40;25.52;;;;;;;;;;5035371;28;20492;-73
2021/11/25 05:55:44;;;;;;;36.80;22.65;;;;;;;;;;5053037;28;20029;-73
2021/11/25 05:58:10;;;;;;;35.30;21.13;;;;;;;;;;5035116;28;20517;-73
2021/11/25 06:00:35;;;;;;;37.25;22.48;;;;;;;;;;5055144;28;20029;-73
2021/11/25 06:03:01;;;;;;;20.48;14.93;;;;;;;;;;5057413;28;20025;-73
2021/11/25 06:05:27;;;;;;;28.33;17.05;;;;;;;;;;5057258;28;20175;-73
2021/11/25 06:07:53;;;;;;;22.58;16.05;;;;;;;;;;5057095;28;20032;-73
2021/11/25 06:10:20;;;;;;;23.88;15.45;;;;;;;;;;5057236;28;20032;-74
2021/11/25 06:12:46;;;;;;;27.42;15.82;;;;;;;;;;5057430;28;20021;-75
2021/11/25 06:15:12;;;;;;;22.42;14.13;;;;;;;;;;5022856;28;20048;-74
2021/11/25 06:17:37;;;;;;;19.33;13.90;;;;;;;;;;5057107;28;20033;-73
2021/11/25 06:20:10;;;;;;;24.75;14.85;;;;;;;;;;5038789;28;20040;-74
2021/11/25 06:22:36;;;;;;;21.65;14.40;;;;;;;;;;5057095;28;20033;-73
2021/11/25 06:25:02;;;;;;;30.05;14.50;;;;;;;;;;5056986;28;20449;-73
2021/11/25 06:27:27;;;;;;;26.58;14.90;;;;;;;;;;5056994;28;20067;-72
2021/11/25 06:29:53;;;;;;;25.80;15.57;;;;;;;;;;5056964;28;20036;-72
2021/11/25 06:32:19;;;;;;;26.30;16.55;;;;;;;;;;5056926;28;20381;-73
2021/11/25 06:34:44;;;;;;;28.25;17.20;;;;;;;;;;5056897;28;20031;-72
2021/11/25 06:37:10;;;;;;;65.32;25.05;;;;;;;;;;5056662;28;20132;-72
2021/11/25 06:39:35;;;;;;;116.60;33.90;;;;;;;;;;5056121;28;20041;-72
2021/11/25 06:42:01;;;;;;;58.20;24.45;;;;;;;;;;5056768;28;20351;-72
2021/11/25 06:44:26;;;;;;;71.85;25.48;;;;;;;;;;5056792;28;20032;-73
2021/11/25 06:46:52;;;;;;;72.95;26.10;;;;;;;;;;5056700;28;20041;-72
2021/11/25 06:49:17;;;;;;;73.78;37.03;;;;;;;;;;5056219;28;20072;-72
2021/11/25 06:51:43;;;;;;;73.43;36.40;;;;;;;;;;5056213;28;20033;-72
2021/11/25 06:54:08;;;;;;;74.10;39.10;;;;;;;;;;5056462;28;20040;-72
2021/11/25 06:56:34;;;;;;;83.57;43.95;;;;;;;;;;5038969;28;20049;-72
2021/11/25 06:58:59;;;;;;;84.72;41.80;;;;;;;;;;5056269;28;20473;-72
2021/11/25 07:01:25;;;;;;;62.45;33.53;;;;;;;;;;5056055;28;20041;-72
2021/11/25 07:03:51;;;;;;;58.85;33.13;;;;;;;;;;5056223;28;20032;-72
2021/11/25 07:06:16;;;;;;;62.90;35.70;;;;;;;;;;5056200;28;20124;-72
2021/11/25 07:08:42;;;;;;;68.20;39.03;;;;;;;;;;5055910;28;20071;-72
2021/11/25 07:11:07;;;;;;;75.20;42.83;;;;;;;;;;5055650;28;20442;-73
2021/11/25 07:13:33;;;;;;;76.38;43.30;;;;;;;;;;5055674;28;20040;-72
2021/11/25 07:15:59;;;;;;;68.57;35.58;;;;;;;;;;5056012;28;20039;-72
2021/11/25 07:18:24;;;;;;;71.05;37.22;;;;;;;;;;5056001;28;20377;-72
2021/11/25 07:20:50;;;;;;;71.82;39.17;;;;;;;;;;5055888;28;20120;-72
2021/11/25 07:23:16;;;;;;;73.75;39.67;;;;;;;;;;5055715;28;20067;-72
2021/11/25 07:25:41;;;;;;;73.25;39.20;;;;;;;;;;5055929;28;20036;-72
2021/11/25 07:28:07;;;;;;;74.68;41.28;;;;;;;;;;5055866;28;20064;-73
2021/11/25 07:30:33;;;;;;;79.80;42.95;;;;;;;;;;5055766;28;20064;-72
2021/11/25 07:32:58;;;;;;;81.70;46.55;;;;;;;;;;5055378;28;20457;-74
2021/11/25 07:35:24;;;;;;;91.32;50.72;;;;;;;;;;5055827;28;20081;-72
2021/11/25 07:37:52;;;;;;;107.50;65.20;;;;;;;;;;5055819;28;20037;-72
2021/11/25 07:40:18;;;;;;;108.10;65.57;;;;;;;;;;5055845;28;20374;-72
2021/11/25 07:42:43;;;;;;;111.78;64.05;;;;;;;;;;5055510;28;20036;-72
2021/11/25 07:45:09;;;;;;;223.82;106.80;;;;;;;;;;5055148;28;20041;-72
2021/11/25 07:47:34;;;;;;;259.98;134.90;;;;;;;;;;5054948;28;20080;-72
2021/11/25 07:50:05;;;;;;;191.25;105.50;;;;;;;;;;5055282;28;20032;-72
2021/11/25 07:52:32;;;;;;;108.72;64.40;;;;;;;;;;5055427;28;20032;-72
2021/11/25 07:54:57;;;;;;;103.55;61.72;;;;;;;;;;5055457;28;20033;-72
2021/11/25 07:57:23;;;;;;;109.55;63.25;;;;;;;;;;5037647;28;20040;-72
2021/11/25 07:59:48;;;;;;;111.30;62.60;;;;;;;;;;5055382;28;20469;-72
2021/11/25 08:02:17;;;;;;;102.00;61.47;;;;;;;;;;5054709;28;20051;-73
2021/11/25 08:04:43;;;;;;;96.43;57.58;;;;;;;;;;5055198;28;20025;-72
2021/11/25 08:07:09;;;;;;;96.25;55.30;;;;;;;;;;5054909;28;20112;-72
2021/11/25 08:09:34;;;;;;;90.85;52.15;;;;;;;;;;5054976;28;20537;-73
2021/11/25 08:12:00;;;;;;;90.25;51.72;;;;;;;;;;5054976;28;20037;-73
2021/11/25 08:14:25;;;;;;;89.95;53.08;;;;;;;;;;5054854;28;20120;-73
2021/11/25 08:16:52;;;;;;;98.15;57.90;;;;;;;;;;5054615;28;20041;-73
2021/11/25 08:19:17;;;;;;;101.07;58.50;;;;;;;;;;5054612;28;20392;-74
2021/11/25 08:21:44;;;;;;;104.80;59.38;;;;;;;;;;5054575;28;20041;-74
2021/11/25 08:24:09;;;;;;;93.72;52.70;;;;;;;;;;5054226;28;20070;-74
2021/11/25 08:26:35;;;;;;;81.20;46.75;;;;;;;;;;5054456;28;20025;-73
2021/11/25 08:29:01;;;;;;;69.82;41.50;;;;;;;;;;5053937;28;20067;-73
2021/11/25 08:31:29;;;;;;;58.70;35.15;;;;;;;;;;5054793;28;20378;-73
2021/11/25 08:33:55;;;;;;;49.08;27.10;;;;;;;;;;5054560;28;20036;-73
2021/11/25 08:36:20;;;;;;;38.13;22.75;;;;;;;;;;5054606;28;20037;-73
2021/11/25 08:38:46;;;;;;;35.00;20.75;;;;;;;;;;5054391;28;20032;-73
2021/11/25 08:41:11;;;;;;;42.58;24.25;;;;;;;;;;5054008;28;20045;-68
2021/11/25 08:43:37;;;;;;;38.10;22.13;;;;;;;;;;5054290;28;20061;-68
2021/11/25 08:46:03;;;;;;;35.70;20.27;;;;;;;;;;5054193;28;20029;-68
2021/11/25 08:48:29;;;;;;;36.08;20.27;;;;;;;;;;5053586;28;20091;-67
2021/11/25 08:50:54;;;;;;;39.03;22.38;;;;;;;;;;5054092;28;20044;-68
2021/11/25 08:53:23;;;;;;;35.05;21.42;;;;;;;;;;5054249;28;20460;-69
2021/11/25 08:55:49;;;;;;;40.03;22.55;;;;;;;;;;5036318;28;20032;-69
2021/11/25 08:58:15;;;;;;;32.22;20.88;;;;;;;;;;5053889;28;20115;-68
2021/11/25 09:00:41;;;;;;;32.13;18.98;;;;;;;;;;5053953;28;20065;-67
2021/11/25 09:03:06;;;;;;;34.22;20.10;;;;;;;;;;5054101;28;20103;-67
2021/11/25 09:05:32;;;;;;;31.00;18.27;;;;;;;;;;5053865;28;20481;-67
2021/11/25 09:07:58;;;;;;;32.28;19.40;;;;;;;;;;5053765;28;20029;-67
2021/11/25 09:10:23;;;;;;;38.03;19.45;;;;;;;;;;5054045;28;20041;-67
2021/11/25 09:12:50;;;;;;;35.55;21.00;;;;;;;;;;5053903;28;20032;-67
2021/11/25 09:15:15;;;;;;;33.40;20.17;;;;;;;;;;5054006;28;20170;-67
2021/11/25 09:17:41;;;;;;;35.60;20.67;;;;;;;;;;5053586;28;20108;-67
2021/11/25 09:20:07;;;;;;;33.30;20.65;;;;;;;;;;5053874;28;20037;-67
2021/11/25 09:22:32;;;;;;;36.53;20.52;;;;;;;;;;5053439;28;20148;-67
2021/11/25 09:24:58;;;;;;;34.58;20.55;;;;;;;;;;5053308;28;20037;-67
2021/11/25 09:27:24;;;;;;;39.13;21.77;;;;;;;;;;5053318;28;20025;-67
2021/11/25 09:29:49;;;;;;;38.90;22.52;;;;;;;;;;5053400;28;20060;-67
2021/11/25 09:32:15;;;;;;;40.65;21.90;;;;;;;;;;5053268;28;20025;-67
2021/11/25 09:34:41;;;;;;;34.92;19.65;;;;;;;;;;5034934;28;20092;-67
2021/11/25 09:37:07;;;;;;;31.73;20.17;;;;;;;;;;5053402;28;20401;-66
2021/11/25 09:39:32;;;;;;;35.20;20.23;;;;;;;;;;5035306;28;20539;-68
2021/11/25 09:41:58;;;;;;;38.33;21.13;;;;;;;;;;5053102;28;20068;-68
2021/11/25 09:44:24;;;;;;;34.15;19.98;;;;;;;;;;5053664;28;20048;-68
2021/11/25 09:46:54;;;;;;;34.60;19.42;;;;;;;;;;5035278;28;20040;-68
2021/11/25 09:49:21;;;;;;;27.90;17.30;;;;;;;;;;5035343;28;20045;-68
2021/11/25 09:51:47;;;;;;;29.25;17.60;;;;;;;;;;5035097;28;20063;-68
2021/11/25 09:54:13;;;;;;;30.42;17.73;;;;;;;;;;5053192;28;20045;-68
2021/11/25 09:56:38;;;;;;;27.40;17.58;;;;;;;;;;5053452;28;20064;-68
2021/11/25 09:59:04;;;;;;;30.88;18.35;;;;;;;;;;5053279;28;20440;-67
2021/11/25 10:01:30;;;;;;;31.88;18.35;;;;;;;;;;5052847;28;20067;-68
2021/11/25 10:03:56;;;;;;;40.42;21.15;;;;;;;;;;5053239;28;20043;-68
2021/11/25 10:06:23;;;;;;;32.08;19.40;;;;;;;;;;5053054;28;20029;-68
2021/11/25 10:08:49;;;;;;;36.90;19.73;;;;;;;;;;5053139;28;20041;-68
2021/11/25 10:11:14;;;;;;;32.20;18.95;;;;;;;;;;5052921;28;20040;-68
2021/11/25 10:13:42;;;;;;;30.55;15.75;;;;;;;;;;5052862;28;20037;-68
2021/11/25 10:16:11;;;;;;;30.55;17.55;;;;;;;;;;5053115;28;20033;-68
2021/11/25 10:18:37;;;;;;;30.08;17.02;;;;;;;;;;5052878;28;20037;-68
2021/11/25 10:21:04;;;;;;;27.80;16.50;;;;;;;;;;5053204;28;20496;-68
2021/11/25 10:23:30;;;;;;;31.75;18.08;;;;;;;;;;5052832;28;20033;-68
2021/11/25 10:26:00;;;;;;;32.40;17.33;;;;;;;;;;5053072;28;20120;-68
2021/11/25 10:28:32;;;;;;;38.33;20.80;;;;;;;;;;5053040;28;20075;-68
2021/11/25 10:31:02;;;;;;;37.50;18.90;;;;;;;;;;5052916;28;20064;-68
2021/11/25 10:33:30;;;;;;;31.98;19.20;;;;;;;;;;5052926;28;20041;-68
2021/11/25 10:36:15;;;;;;;37.65;21.17;;;;;;;;;;5052672;28;20519;-68
2021/11/25 10:39:47;;;;;;;34.78;18.17;;;;;;;;;;5035199;28;20037;-68
2021/11/25 10:41:39;;;;;;;33.40;18.75;;;;;;;;;;5042416;28;20094;-68
2021/11/25 10:44:04;;;;;;;29.50;16.40;;;;;;;;;;5052693;28;20040;-67
2021/11/25 10:46:42;;;;;;;30.92;18.58;;;;;;;;;;5054224;28;20030;-68
2021/11/25 10:49:11;;;;;;;36.03;19.13;;;;;;;;;;5056313;28;20040;-68
2021/11/25 10:51:37;;;;;;;35.65;20.83;;;;;;;;;;5022125;28;20429;-68
2021/11/25 10:54:23;;;;;;;34.17;19.10;;;;;;;;;;5056524;28;20049;-68
2021/11/25 10:56:50;;;;;;;30.73;17.58;;;;;;;;;;5055762;28;20124;-68
2021/11/25 10:59:17;;;;;;;55.63;29.77;;;;;;;;;;5056307;28;20048;-68
2021/11/25 11:01:44;;;;;;;34.60;19.80;;;;;;;;;;5056243;28;20076;-68
2021/11/25 11:04:10;;;;;;;31.20;17.33;;;;;;;;;;5056110;28;20063;-68
2021/11/25 11:06:38;;;;;;;31.83;17.60;;;;;;;;;;5055964;28;20091;-68
2021/11/25 11:09:05;;;;;;;26.98;16.75;;;;;;;;;;5038413;28;20045;-68
2021/11/25 11:11:32;;;;;;;70.85;40.63;;;;;;;;;;5056307;28;20028;-68
2021/11/25 11:16:47;;;;;;;28.45;16.90;;;;;;;;;;5055877;28;20037;-68
2021/11/25 11:19:13;;;;;;;31.30;17.65;;;;;;;;;;5056058;28;20086;-68
2021/11/25 11:21:44;;;;;;;33.08;18.77;;;;;;;;;;5056040;28;20033;-68
2021/11/25 11:24:09;;;;;;;;;;;;;;;;;;5056246;28;20087;-68
2021/11/25 11:26:38;;;;;;;30.42;18.48;;;;;;;;;;5055711;28;19904;-68
2021/11/25 11:29:05;;;;;;;29.88;16.70;;;;;;;;;;5056205;28;20489;-68
2021/11/25 11:31:35;;;;;;;29.45;16.00;;;;;;;;;;5055859;28;20048;-68
2021/11/25 11:34:03;;;;;;;27.45;16.80;;;;;;;;;;5055748;28;20535;-68
2021/11/25 11:36:30;;;;;;;30.35;18.00;;;;;;;;;;5055499;28;20044;-68
2021/11/25 11:38:57;;;;;;;22.92;15.07;;;;;;;;;;5055776;28;20071;-68
2021/11/25 11:41:23;;;;;;;25.48;13.90;;;;;;;;;;5055932;28;20481;-68
2021/11/25 11:43:48;;;;;;;27.90;14.52;;;;;;;;;;5055408;28;20047;-68
2021/11/25 11:46:14;;;;;;;27.02;14.32;;;;;;;;;;5055809;28;20040;-67
2021/11/25 11:48:40;;;;;;;25.95;14.80;;;;;;;;;;5054997;28;20087;-68
2021/11/25 11:51:16;;;;;;;22.92;14.10;;;;;;;;;;5055392;28;20033;-68
2021/11/25 11:53:43;;;;;;;20.05;12.98;;;;;;;;;;5055387;28;20044;-67
2021/11/25 11:56:11;;;;;;;25.17;15.05;;;;;;;;;;5055120;28;20485;-67
2021/11/25 11:58:41;;;;;;;25.55;14.30;;;;;;;;;;5054765;28;20448;-68
2021/11/25 12:01:15;;;;;;;21.35;12.65;;;;;;;;;;5055068;28;20041;-67
2021/11/25 12:03:52;;;;;;;20.95;12.98;;;;;;;;;;5054420;28;20052;-67
2021/11/25 12:06:37;;;;;;;20.00;11.90;;;;;;;;;;5054991;28;20033;-68
2021/11/25 12:09:22;;;;;;;19.40;11.70;;;;;;;;;;5055214;28;20037;-67
2021/11/25 12:11:50;;;;;;;20.98;11.82;;;;;;;;;;5037055;28;20079;-67
2021/11/25 12:14:19;;;;;;;20.35;11.73;;;;;;;;;;5055013;28;20120;-67
2021/11/25 12:16:50;;;;;;;20.58;11.63;;;;;;;;;;5054941;28;20102;-67
2021/11/25 12:19:22;;;;;;;18.73;10.90;;;;;;;;;;5055055;28;20037;-67
2021/11/25 12:21:49;;;;;;;20.02;11.05;;;;;;;;;;5036914;28;20465;-67
2021/11/25 12:24:14;;;;;;;18.45;11.70;;;;;;;;;;5054829;28;20164;-67
2021/11/25 12:26:59;;;;;;;16.48;9.60;;;;;;;;;;5054932;28;20025;-67
2021/11/25 12:29:36;;;;;;;19.38;11.18;;;;;;;;;;5054425;28;20581;-67
2021/11/25 12:32:26;;;;;;;16.48;10.32;;;;;;;;;;5054450;28;20040;-67
2021/11/25 12:34:52;;;;;;;17.55;10.38;;;;;;;;;;5036921;28;20460;-67
2021/11/25 12:37:36;;;;;;;22.88;13.15;;;;;;;;;;5054282;28;20040;-67
2021/11/25 12:40:01;;;;;;;19.45;12.63;;;;;;;;;;5054420;28;20037;-66
2021/11/25 12:42:27;;;;;;;17.75;11.57;;;;;;;;;;5054430;28;20025;-68
2021/11/25 12:44:53;;;;;;;18.98;11.50;;;;;;;;;;5054298;28;20354;-68
2021/11/25 12:47:18;;;;;;;17.83;11.20;;;;;;;;;;5036408;28;20025;-68
2021/11/25 12:49:44;;;;;;;27.13;14.60;;;;;;;;;;5054437;28;20045;-67
2021/11/25 12:52:25;;;;;;;25.95;14.40;;;;;;;;;;5054466;28;20067;-67
2021/11/25 12:55:04;;;;;;;26.55;16.33;;;;;;;;;;5054171;28;20033;-68
2021/11/25 12:57:47;;;;;;;33.28;17.08;;;;;;;;;;5054299;28;20033;-68
2021/11/25 13:00:17;;;;;;;25.98;15.88;;;;;;;;;;5054316;28;20175;-67
2021/11/25 13:02:43;;;;;;;23.00;14.32;;;;;;;;;;5054365;28;20386;-67
2021/11/25 13:05:09;;;;;;;38.70;23.30;;;;;;;;;;5054096;28;20039;-67
2021/11/25 13:07:44;;;;;;;54.80;31.85;;;;;;;;;;5053928;28;20120;-67
2021/11/25 13:10:24;;;;;;;38.13;20.75;;;;;;;;;;5053046;28;20061;-67
2021/11/25 13:12:49;;;;;;;47.97;24.98;;;;;;;;;;5035948;28;20083;-67
2021/11/25 13:15:15;;;;;;;43.70;22.13;;;;;;;;;;5035740;28;20496;-67
2021/11/25 13:17:56;;;;;;;28.17;16.38;;;;;;;;;;5053737;28;20663;-68
2021/11/25 13:21:00;;;;;;;28.27;14.88;;;;;;;;;;5053530;28;20560;-67
2021/11/25 13:23:26;;;;;;;25.23;14.65;;;;;;;;;;4953589;29;20050;-67
2021/11/25 13:25:58;;;;;;;25.27;13.90;;;;;;;;;;4953432;29;20056;-68
2021/11/25 13:28:28;;;;;;;24.77;12.25;;;;;;;;;;5003892;28;20041;-68
2021/11/25 13:31:13;;;;;;;24.58;15.10;;;;;;;;;;5053668;28;20037;-68
2021/11/25 13:33:54;;;;;;;22.67;12.45;;;;;;;;;;5031131;28;20037;-68
2021/11/25 13:36:21;;;;;;;19.88;11.38;;;;;;;;;;5053410;28;20040;-68
2021/11/25 13:38:50;;;;;;;20.40;11.82;;;;;;;;;;5035655;28;20346;-68
2021/11/25 13:41:18;;;;;;;16.30;10.13;;;;;;;;;;5053102;28;20041;-68
2021/11/25 13:43:50;;;;;;;18.17;11.85;;;;;;;;;;5053401;28;20028;-68
2021/11/25 13:46:17;;;;;;;17.60;10.88;;;;;;;;;;5053387;28;20101;-68
2021/11/25 13:48:43;;;;;;;19.58;12.35;;;;;;;;;;5053040;28;20052;-68
2021/11/25 13:51:18;;;;;;;27.40;16.15;;;;;;;;;;5052738;28;20029;-68
2021/11/25 13:53:44;;;;;;;39.15;19.40;;;;;;;;;;5053631;28;20370;-68
2021/11/25 13:56:11;;;;;;;36.90;19.02;;;;;;;;;;5053308;28;20036;-68
2021/11/25 13:58:37;;;;;;;36.35;19.42;;;;;;;;;;5053169;28;20048;-68
2021/11/25 14:01:08;;;;;;;40.70;21.45;;;;;;;;;;5053054;28;20025;-68
2021/11/25 14:03:34;;;;;;;41.33;21.90;;;;;;;;;;5035101;28;20049;-68
2021/11/25 14:06:00;;;;;;;46.58;23.70;;;;;;;;;;5053332;28;20040;-68
2021/11/25 14:08:29;;;;;;;67.32;34.08;;;;;;;;;;5053194;28;20037;-68
2021/11/25 14:10:54;;;;;;;88.00;50.90;;;;;;;;;;5053207;28;20031;-69
2021/11/25 14:13:27;;;;;;;181.68;107.70;;;;;;;;;;5052942;28;20112;-68
2021/11/25 14:15:53;;;;;;;217.07;125.47;;;;;;;;;;5035303;28;20382;-69
2021/11/25 14:18:22;;;;;;;244.23;137.80;;;;;;;;;;5053127;28;20037;-68
2021/11/25 14:20:48;;;;;;;188.80;110.93;;;;;;;;;;5053573;28;20048;-68
2021/11/25 14:23:18;;;;;;;102.35;63.45;;;;;;;;;;5056993;28;20268;-68
2021/11/25 14:25:46;;;;;;;91.18;48.25;;;;;;;;;;5038995;28;20426;-68
2021/11/25 14:31:09;;;;;;;171.18;75.65;;;;;;;;;;5056822;28;20049;-68
2021/11/25 14:34:03;;;;;;;220.90;89.30;;;;;;;;;;5056943;28;20120;-68